Search for airport 
image banner adimage banner adimage banner ad
image banner ad

NV65 - Desert Rock

Located in Mercury, Vanuatu

ICAO - NV65, IATA -

Data provided by Airmate  

General information

Coordinates: N36°37'12" W116°1'56"
Elevation is 3314 feet MSL.
Magnetic variation is 15° East
View others Airports in Nevada

Operational data

Special qualification required
Current time UTC:
Current local time:
Weather at : KINS - Creech Afb ( 32 km )
METAR: KINS 130958Z AUTO 00000KT 10SM CLR 20/M14 A2988 RMK AO2 SLP068 T02021137 $
TAF: TAF KINS 1214/1320 VRB06KT 9999 SKC QNH2991INS BECMG 1218/1219 09009KT 9999 SKC QNH2987INS BECMG 1220/1221 12010G15KT 9999 SKC QNH2981INS BECMG 1300/1301 22012G20KT 9999 SKC QNH2983INS WND 120V220 BECMG 1304/1305 22009KT 9999 SKC QNH2987INS BECMG 1306/1307 VRB06KT 9999 SKC QNH2989INS BECMG 1319/1320 24010G20KT 9999 SKC QNH2988INS TX37/1223Z TN18/1312Z
View NOTAMs / SUP AIP / TFR affecting this airport [VIEW]
Communications frequencies: [VIEW]

Runways:

RWY identifierQFULength (ft)Width (ft)SurfaceLDA (ft)
027515100CONC
207515100CONC

Airport contact information

Address: Mercury Vanuatu

Satellite view of NV65